TRA819R EHAM-LIBD
Flight info
| Callsign | TRA819R |
|---|---|
| Flight time | 2h 4m |
| Altitude | 37000 |
| Route | EDUPO Z739 MISGO DCT ASBON DCT TUSUK DCT UTABA DCT BEMKI DCT ELMEM DCT DIRAB DCT AGOMO DCT AFCAM DCT BEFHE DCT EKMUR |
| Aircraft | A21N/M-SDE2E3FGHIJ1RWXY/LB1 |
Departure
| Time | 2026-05-04 03:36 |
|---|---|
| Airport | Amsterdam Airport Schiphol (EHAM) |
Arrival
| Time | 2026-05-04 05:41 |
|---|---|
| Airport | Bari Karol Wojtyła International Airport (LIBD) |
| Time | Latitude | Longitude | Altitude | Speed | Heading |
|---|---|---|---|---|---|
| 2026-05-04 03:14 | 52.30504 | 4.76546 | -12 ft | 0 kts | 58° |
| 2026-05-04 03:31 | 52.30491 | 4.76510 | -1 ft | 6 kts | 58° |
| 2026-05-04 03:31 | 52.30484 | 4.76463 | -1 ft | 0 kts | 149° |
| 2026-05-04 03:32 | 52.30483 | 4.76464 | -1 ft | 1 kts | 149° |
| 2026-05-04 03:33 | 52.30434 | 4.76511 | -1 ft | 17 kts | 148° |
| 2026-05-04 03:33 | 52.30351 | 4.76661 | -1 ft | 20 kts | 114° |
| 2026-05-04 03:33 | 52.30336 | 4.76873 | -1 ft | 23 kts | 65° |
| 2026-05-04 03:33 | 52.30422 | 4.77104 | -1 ft | 23 kts | 58° |
| 2026-05-04 03:34 | 52.30505 | 4.77327 | -1 ft | 22 kts | 58° |
| 2026-05-04 03:34 | 52.30566 | 4.77529 | -1 ft | 15 kts | 102° |
| 2026-05-04 03:34 | 52.30518 | 4.77591 | -1 ft | 0 kts | 158° |
| 2026-05-04 03:35 | 52.30493 | 4.77607 | -1 ft | 10 kts | 156° |
| 2026-05-04 03:35 | 52.30407 | 4.77612 | -2 ft | 17 kts | 220° |
| 2026-05-04 03:35 | 52.30331 | 4.77409 | -3 ft | 27 kts | 234° |
| 2026-05-04 03:35 | 52.30153 | 4.76963 | -3 ft | 76 kts | 238° |
| 2026-05-04 03:36 | 52.29764 | 4.75946 | -2 ft | 132 kts | 238° |
| 2026-05-04 03:36 | 52.29202 | 4.74478 | 57 ft | 167 kts | 238° |
| 2026-05-04 03:36 | 52.28625 | 4.72832 | 638 ft | 167 kts | 241° |
| 2026-05-04 03:36 | 52.28019 | 4.71208 | 1235 ft | 167 kts | 239° |
| 2026-05-04 03:37 | 52.27319 | 4.69676 | 1761 ft | 173 kts | 224° |
| 2026-05-04 03:37 | 52.26206 | 4.68700 | 1929 ft | 195 kts | 195° |
| 2026-05-04 03:37 | 52.24794 | 4.68707 | 2079 ft | 215 kts | 168° |
| 2026-05-04 03:37 | 52.23419 | 4.69884 | 2307 ft | 234 kts | 137° |
| 2026-05-04 03:38 | 52.22476 | 4.72077 | 2922 ft | 242 kts | 120° |
| 2026-05-04 03:38 | 52.21594 | 4.74560 | 3262 ft | 263 kts | 121° |
| 2026-05-04 03:38 | 52.20656 | 4.77170 | 3927 ft | 270 kts | 121° |
| 2026-05-04 03:38 | 52.19711 | 4.79797 | 4670 ft | 274 kts | 121° |
| 2026-05-04 03:39 | 52.18739 | 4.82497 | 5423 ft | 278 kts | 121° |
| 2026-05-04 03:39 | 52.17941 | 4.85381 | 6154 ft | 283 kts | 106° |
| 2026-05-04 03:39 | 52.17690 | 4.88573 | 6862 ft | 288 kts | 88° |
| 2026-05-04 03:39 | 52.18037 | 4.91796 | 7549 ft | 292 kts | 72° |
| 2026-05-04 03:40 | 52.18650 | 4.94968 | 8241 ft | 296 kts | 73° |
| 2026-05-04 03:40 | 52.19264 | 4.98189 | 8936 ft | 299 kts | 73° |
| 2026-05-04 03:40 | 52.19880 | 5.01451 | 9632 ft | 303 kts | 73° |
| 2026-05-04 03:40 | 52.20505 | 5.04766 | 10208 ft | 311 kts | 73° |
| 2026-05-04 03:41 | 52.21159 | 5.08265 | 10343 ft | 334 kts | 73° |
| 2026-05-04 03:41 | 52.21856 | 5.12006 | 10475 ft | 355 kts | 73° |
| 2026-05-04 03:41 | 52.22594 | 5.15970 | 10597 ft | 375 kts | 74° |
| 2026-05-04 03:41 | 52.23083 | 5.20216 | 10937 ft | 385 kts | 87° |
| 2026-05-04 03:42 | 52.23024 | 5.24594 | 11493 ft | 388 kts | 99° |
| 2026-05-04 03:42 | 52.22413 | 5.28880 | 12087 ft | 389 kts | 111° |
| 2026-05-04 03:42 | 52.21265 | 5.32866 | 12697 ft | 389 kts | 124° |
| 2026-05-04 03:42 | 52.19728 | 5.36497 | 13303 ft | 391 kts | 128° |
| 2026-05-04 03:43 | 52.18146 | 5.40120 | 13899 ft | 394 kts | 128° |
| 2026-05-04 03:43 | 52.16555 | 5.43769 | 14449 ft | 397 kts | 128° |
| 2026-05-04 03:43 | 52.14950 | 5.47452 | 14977 ft | 400 kts | 128° |
| 2026-05-04 03:43 | 52.13337 | 5.51155 | 15505 ft | 403 kts | 128° |
| 2026-05-04 03:44 | 52.11708 | 5.54884 | 16013 ft | 406 kts | 129° |
| 2026-05-04 03:44 | 52.10063 | 5.58632 | 16513 ft | 408 kts | 129° |
| 2026-05-04 03:44 | 52.08404 | 5.62404 | 17014 ft | 411 kts | 129° |
| 2026-05-04 03:44 | 52.06734 | 5.66202 | 17507 ft | 414 kts | 129° |
| 2026-05-04 03:45 | 52.04926 | 5.69839 | 17995 ft | 415 kts | 135° |
| 2026-05-04 03:45 | 52.03024 | 5.73392 | 18449 ft | 418 kts | 135° |
| 2026-05-04 03:45 | 52.01110 | 5.76959 | 18866 ft | 421 kts | 135° |
| 2026-05-04 03:45 | 51.99207 | 5.80500 | 19272 ft | 423 kts | 135° |
| 2026-05-04 03:46 | 51.97266 | 5.84107 | 19692 ft | 426 kts | 135° |
| 2026-05-04 03:46 | 51.95314 | 5.87738 | 20099 ft | 429 kts | 136° |
| 2026-05-04 03:46 | 51.93352 | 5.91394 | 20518 ft | 431 kts | 136° |
| 2026-05-04 03:46 | 51.91379 | 5.95083 | 20917 ft | 434 kts | 136° |
| 2026-05-04 03:47 | 51.89396 | 5.98792 | 21324 ft | 437 kts | 136° |
| 2026-05-04 03:47 | 51.87395 | 6.02514 | 21714 ft | 440 kts | 136° |
| 2026-05-04 03:47 | 51.85376 | 6.06255 | 22124 ft | 443 kts | 137° |
| 2026-05-04 03:47 | 51.83344 | 6.10013 | 22519 ft | 445 kts | 137° |
| 2026-05-04 03:48 | 51.81293 | 6.13787 | 22905 ft | 448 kts | 137° |
| 2026-05-04 03:48 | 51.79227 | 6.17575 | 23281 ft | 451 kts | 137° |
| 2026-05-04 03:48 | 51.77144 | 6.21386 | 23629 ft | 454 kts | 138° |
| 2026-05-04 03:48 | 51.75048 | 6.25216 | 23946 ft | 456 kts | 138° |
| 2026-05-04 03:49 | 51.72935 | 6.29060 | 24256 ft | 459 kts | 138° |
| 2026-05-04 03:49 | 51.70815 | 6.32907 | 24577 ft | 461 kts | 138° |
| 2026-05-04 03:49 | 51.68677 | 6.36783 | 24884 ft | 463 kts | 138° |
| 2026-05-04 03:49 | 51.66534 | 6.40669 | 25192 ft | 465 kts | 138° |
| 2026-05-04 03:50 | 51.64408 | 6.44523 | 25486 ft | 467 kts | 138° |
| 2026-05-04 03:50 | 51.62249 | 6.48442 | 25791 ft | 469 kts | 138° |
| 2026-05-04 03:50 | 51.60079 | 6.52381 | 26086 ft | 471 kts | 138° |
| 2026-05-04 03:50 | 51.57896 | 6.56329 | 26387 ft | 473 kts | 138° |
| 2026-05-04 03:51 | 51.55702 | 6.60287 | 26686 ft | 475 kts | 138° |
| 2026-05-04 03:51 | 51.53494 | 6.64256 | 26979 ft | 477 kts | 138° |
| 2026-05-04 03:51 | 51.51275 | 6.68240 | 27270 ft | 479 kts | 138° |
| 2026-05-04 03:51 | 51.49051 | 6.72232 | 27612 ft | 480 kts | 138° |
| 2026-05-04 03:52 | 51.46832 | 6.76212 | 28011 ft | 479 kts | 138° |
| 2026-05-04 03:52 | 51.44611 | 6.80188 | 28401 ft | 478 kts | 138° |
| 2026-05-04 03:52 | 51.42387 | 6.84152 | 28759 ft | 477 kts | 139° |
| 2026-05-04 03:52 | 51.39995 | 6.87758 | 29128 ft | 469 kts | 148° |
| 2026-05-04 03:53 | 51.37356 | 6.90755 | 29482 ft | 462 kts | 154° |
| 2026-05-04 03:53 | 51.34639 | 6.93486 | 29857 ft | 461 kts | 155° |
| 2026-05-04 03:53 | 51.31923 | 6.96214 | 30208 ft | 460 kts | 154° |
| 2026-05-04 03:53 | 51.29213 | 6.98932 | 30560 ft | 459 kts | 154° |
| 2026-05-04 03:54 | 51.26513 | 7.01638 | 30939 ft | 457 kts | 154° |
| 2026-05-04 03:54 | 51.23834 | 7.04327 | 31321 ft | 455 kts | 154° |
| 2026-05-04 03:54 | 51.21168 | 7.07003 | 31703 ft | 453 kts | 154° |
| 2026-05-04 03:54 | 51.18509 | 7.09666 | 32092 ft | 451 kts | 154° |
| 2026-05-04 03:55 | 51.15856 | 7.12314 | 32462 ft | 449 kts | 154° |
| 2026-05-04 03:55 | 51.13215 | 7.14947 | 32836 ft | 447 kts | 154° |
| 2026-05-04 03:55 | 51.10583 | 7.17571 | 33202 ft | 446 kts | 154° |
| 2026-05-04 03:55 | 51.07955 | 7.20187 | 33562 ft | 445 kts | 154° |
| 2026-05-04 03:56 | 51.05339 | 7.22783 | 33908 ft | 443 kts | 154° |
| 2026-05-04 03:56 | 51.02723 | 7.25370 | 34192 ft | 442 kts | 154° |
| 2026-05-04 03:56 | 51.00113 | 7.27948 | 34445 ft | 442 kts | 154° |
| 2026-05-04 03:56 | 50.97538 | 7.30491 | 34686 ft | 442 kts | 154° |
| 2026-05-04 03:57 | 50.94929 | 7.33066 | 34928 ft | 441 kts | 154° |
| 2026-05-04 03:57 | 50.92321 | 7.35641 | 35150 ft | 441 kts | 154° |
| 2026-05-04 03:57 | 50.89716 | 7.38211 | 35354 ft | 441 kts | 154° |
| 2026-05-04 03:57 | 50.87109 | 7.40776 | 35594 ft | 441 kts | 154° |
| 2026-05-04 03:58 | 50.81896 | 7.45891 | 36047 ft | 441 kts | 154° |
| 2026-05-04 03:58 | 50.79290 | 7.48449 | 36267 ft | 441 kts | 154° |
| 2026-05-04 03:58 | 50.76685 | 7.51001 | 36484 ft | 440 kts | 154° |
| 2026-05-04 03:59 | 50.74081 | 7.53547 | 36687 ft | 440 kts | 154° |
| 2026-05-04 03:59 | 50.71478 | 7.56097 | 36890 ft | 440 kts | 153° |
| 2026-05-04 03:59 | 50.68894 | 7.58704 | 36992 ft | 442 kts | 152° |
| 2026-05-04 03:59 | 50.66324 | 7.61368 | 37012 ft | 442 kts | 152° |
| 2026-05-04 04:00 | 50.61218 | 7.66743 | 37005 ft | 441 kts | 152° |
| 2026-05-04 04:00 | 50.56106 | 7.72079 | 37017 ft | 440 kts | 152° |
| 2026-05-04 04:01 | 50.50975 | 7.77346 | 37015 ft | 440 kts | 152° |
| 2026-05-04 04:01 | 50.45841 | 7.82591 | 37015 ft | 440 kts | 152° |
| 2026-05-04 04:02 | 50.40707 | 7.87837 | 37013 ft | 441 kts | 152° |
| 2026-05-04 04:02 | 50.35570 | 7.93085 | 37007 ft | 441 kts | 152° |
| 2026-05-04 04:03 | 50.30468 | 7.98291 | 37010 ft | 441 kts | 152° |
| 2026-05-04 04:03 | 50.25332 | 8.03507 | 37010 ft | 440 kts | 152° |
| 2026-05-04 04:04 | 50.20840 | 8.08052 | 37018 ft | 440 kts | 152° |
| 2026-05-04 04:04 | 50.15698 | 8.13247 | 37027 ft | 441 kts | 152° |
| 2026-05-04 04:05 | 50.10350 | 8.17744 | 37034 ft | 435 kts | 160° |
| 2026-05-04 04:05 | 50.04859 | 8.21712 | 37033 ft | 435 kts | 160° |
| 2026-05-04 04:06 | 49.99360 | 8.25671 | 37036 ft | 435 kts | 159° |
| 2026-05-04 04:06 | 49.93862 | 8.29628 | 37031 ft | 436 kts | 159° |
| 2026-05-04 04:07 | 49.88356 | 8.33581 | 37020 ft | 436 kts | 160° |
| 2026-05-04 04:07 | 49.82849 | 8.37517 | 37011 ft | 436 kts | 159° |
| 2026-05-04 04:08 | 49.77332 | 8.41464 | 37006 ft | 437 kts | 159° |
| 2026-05-04 04:08 | 49.71815 | 8.45398 | 37004 ft | 437 kts | 159° |
| 2026-05-04 04:09 | 49.66287 | 8.49322 | 37005 ft | 437 kts | 159° |
| 2026-05-04 04:09 | 49.60759 | 8.53238 | 37007 ft | 437 kts | 159° |
| 2026-05-04 04:10 | 49.55226 | 8.57154 | 37010 ft | 438 kts | 159° |
| 2026-05-04 04:10 | 49.49685 | 8.61068 | 37010 ft | 438 kts | 159° |
| 2026-05-04 04:11 | 49.44144 | 8.64967 | 37011 ft | 438 kts | 159° |
| 2026-05-04 04:11 | 49.38629 | 8.68833 | 37009 ft | 439 kts | 159° |
| 2026-05-04 04:12 | 49.33075 | 8.72717 | 37011 ft | 439 kts | 159° |
| 2026-05-04 04:12 | 49.27513 | 8.76602 | 37009 ft | 439 kts | 159° |
| 2026-05-04 04:13 | 49.21950 | 8.80490 | 37009 ft | 440 kts | 159° |
| 2026-05-04 04:13 | 49.17319 | 8.83714 | 37008 ft | 440 kts | 159° |
| 2026-05-04 04:14 | 49.11745 | 8.87572 | 37015 ft | 440 kts | 159° |
| 2026-05-04 04:14 | 49.06158 | 8.91426 | 37019 ft | 440 kts | 159° |
| 2026-05-04 04:15 | 49.00576 | 8.95280 | 37021 ft | 441 kts | 159° |
| 2026-05-04 04:15 | 48.94986 | 8.99132 | 37029 ft | 441 kts | 159° |
| 2026-05-04 04:16 | 48.89556 | 9.02853 | 37032 ft | 441 kts | 159° |
| 2026-05-04 04:16 | 48.84115 | 9.06565 | 37027 ft | 441 kts | 159° |
| 2026-05-04 04:17 | 48.78519 | 9.10394 | 37028 ft | 441 kts | 159° |
| 2026-05-04 04:17 | 48.72922 | 9.14213 | 37023 ft | 441 kts | 159° |
| 2026-05-04 04:18 | 48.67327 | 9.18017 | 37028 ft | 441 kts | 159° |
| 2026-05-04 04:18 | 48.61725 | 9.21821 | 37026 ft | 441 kts | 159° |
| 2026-05-04 04:19 | 48.56122 | 9.25615 | 37031 ft | 441 kts | 159° |
| 2026-05-04 04:19 | 48.50519 | 9.29388 | 37030 ft | 441 kts | 159° |
| 2026-05-04 04:20 | 48.44913 | 9.33159 | 37037 ft | 441 kts | 159° |
| 2026-05-04 04:20 | 48.39313 | 9.36930 | 37036 ft | 441 kts | 159° |
| 2026-05-04 04:21 | 48.33706 | 9.40690 | 37038 ft | 441 kts | 159° |
| 2026-05-04 04:21 | 48.28091 | 9.44433 | 37036 ft | 441 kts | 159° |
| 2026-05-04 04:22 | 48.22887 | 9.49382 | 37038 ft | 448 kts | 143° |
| 2026-05-04 04:22 | 48.18081 | 9.55348 | 37035 ft | 448 kts | 143° |
| 2026-05-04 04:23 | 48.13259 | 9.61264 | 37040 ft | 449 kts | 144° |
| 2026-05-04 04:23 | 48.08451 | 9.67135 | 37040 ft | 449 kts | 143° |
| 2026-05-04 04:24 | 48.04208 | 9.72321 | 37044 ft | 449 kts | 143° |
| 2026-05-04 04:24 | 47.99360 | 9.78234 | 37046 ft | 450 kts | 143° |
| 2026-05-04 04:25 | 47.94506 | 9.84135 | 37049 ft | 450 kts | 144° |
| 2026-05-04 04:25 | 47.89648 | 9.90039 | 37050 ft | 451 kts | 143° |
| 2026-05-04 04:26 | 47.84786 | 9.95932 | 37051 ft | 451 kts | 144° |
| 2026-05-04 04:26 | 47.79915 | 10.01813 | 37050 ft | 451 kts | 143° |
| 2026-05-04 04:27 | 47.75035 | 10.07692 | 37054 ft | 451 kts | 143° |
| 2026-05-04 04:27 | 47.70153 | 10.13555 | 37050 ft | 452 kts | 143° |
| 2026-05-04 04:28 | 47.65266 | 10.19413 | 37054 ft | 452 kts | 143° |
| 2026-05-04 04:28 | 47.60370 | 10.25266 | 37051 ft | 452 kts | 143° |
| 2026-05-04 04:29 | 47.55439 | 10.31045 | 37057 ft | 451 kts | 149° |
| 2026-05-04 04:29 | 47.50244 | 10.36108 | 37056 ft | 450 kts | 149° |
| 2026-05-04 04:30 | 47.45006 | 10.41199 | 37052 ft | 450 kts | 149° |
| 2026-05-04 04:30 | 47.39762 | 10.46274 | 37050 ft | 451 kts | 149° |
| 2026-05-04 04:31 | 47.34512 | 10.51350 | 37053 ft | 451 kts | 149° |
| 2026-05-04 04:31 | 47.29256 | 10.56406 | 37054 ft | 451 kts | 149° |
| 2026-05-04 04:32 | 47.24055 | 10.61614 | 37067 ft | 453 kts | 147° |
| 2026-05-04 04:32 | 47.18957 | 10.67059 | 37078 ft | 453 kts | 146° |
| 2026-05-04 04:33 | 47.13862 | 10.72501 | 37085 ft | 453 kts | 146° |
| 2026-05-04 04:33 | 47.08737 | 10.77882 | 37098 ft | 453 kts | 146° |
| 2026-05-04 04:34 | 47.03590 | 10.83227 | 37117 ft | 453 kts | 147° |
| 2026-05-04 04:34 | 46.98441 | 10.88559 | 37121 ft | 453 kts | 146° |
| 2026-05-04 04:35 | 46.93300 | 10.93890 | 37126 ft | 453 kts | 146° |
| 2026-05-04 04:35 | 46.88192 | 10.99187 | 37132 ft | 453 kts | 146° |
| 2026-05-04 04:36 | 46.83036 | 11.04504 | 37146 ft | 454 kts | 146° |
| 2026-05-04 04:36 | 46.77861 | 11.09797 | 37153 ft | 454 kts | 147° |
| 2026-05-04 04:37 | 46.67435 | 11.20241 | 37160 ft | 455 kts | 147° |
| 2026-05-04 04:38 | 46.62213 | 11.25454 | 37166 ft | 455 kts | 147° |
| 2026-05-04 04:38 | 46.56993 | 11.30671 | 37170 ft | 455 kts | 147° |
| 2026-05-04 04:39 | 46.51765 | 11.35873 | 37171 ft | 456 kts | 147° |
| 2026-05-04 04:39 | 46.46526 | 11.41068 | 37175 ft | 456 kts | 147° |
| 2026-05-04 04:40 | 46.41280 | 11.46252 | 37172 ft | 456 kts | 147° |
| 2026-05-04 04:40 | 46.36042 | 11.51431 | 37190 ft | 455 kts | 148° |
| 2026-05-04 04:41 | 46.30823 | 11.56588 | 37174 ft | 454 kts | 148° |
| 2026-05-04 04:41 | 46.25612 | 11.61723 | 37155 ft | 453 kts | 148° |
| 2026-05-04 04:42 | 46.20437 | 11.66800 | 37146 ft | 453 kts | 148° |
| 2026-05-04 04:42 | 46.15226 | 11.71900 | 37137 ft | 452 kts | 148° |
| 2026-05-04 04:43 | 46.10011 | 11.76986 | 37132 ft | 452 kts | 148° |
| 2026-05-04 04:43 | 46.04795 | 11.82063 | 37121 ft | 453 kts | 148° |
| 2026-05-04 04:44 | 45.99579 | 11.87135 | 37113 ft | 453 kts | 148° |
| 2026-05-04 04:44 | 45.94353 | 11.92207 | 37102 ft | 453 kts | 148° |
| 2026-05-04 04:45 | 45.89127 | 11.97269 | 37097 ft | 453 kts | 148° |
| 2026-05-04 04:47 | 45.70836 | 12.14861 | 37080 ft | 455 kts | 148° |
| 2026-05-04 04:47 | 45.65581 | 12.19907 | 37081 ft | 455 kts | 148° |
| 2026-05-04 04:48 | 45.60314 | 12.24943 | 37081 ft | 456 kts | 149° |
| 2026-05-04 04:49 | 45.47159 | 12.37464 | 37080 ft | 456 kts | 149° |
| 2026-05-04 04:49 | 45.41873 | 12.42480 | 37081 ft | 457 kts | 149° |
| 2026-05-04 04:50 | 45.36581 | 12.47480 | 37077 ft | 457 kts | 149° |
| 2026-05-04 04:50 | 45.31284 | 12.52468 | 37079 ft | 457 kts | 149° |
| 2026-05-04 04:51 | 45.25984 | 12.57466 | 37082 ft | 457 kts | 149° |
| 2026-05-04 04:51 | 45.20675 | 12.62453 | 37082 ft | 458 kts | 149° |
| 2026-05-04 04:52 | 45.15368 | 12.67432 | 37086 ft | 458 kts | 149° |
| 2026-05-04 04:52 | 45.10054 | 12.72406 | 37086 ft | 458 kts | 149° |
| 2026-05-04 04:53 | 45.04738 | 12.77365 | 37088 ft | 458 kts | 149° |
| 2026-05-04 04:53 | 44.99431 | 12.82352 | 37093 ft | 459 kts | 148° |
| 2026-05-04 04:54 | 44.94259 | 12.87649 | 37096 ft | 459 kts | 146° |
| 2026-05-04 04:54 | 44.89143 | 12.93060 | 37098 ft | 460 kts | 146° |
| 2026-05-04 04:55 | 44.83994 | 12.98404 | 37098 ft | 460 kts | 147° |
| 2026-05-04 04:55 | 44.78806 | 13.03674 | 37099 ft | 460 kts | 147° |
| 2026-05-04 04:56 | 44.73651 | 13.08892 | 37102 ft | 460 kts | 147° |
| 2026-05-04 04:56 | 44.68470 | 13.14164 | 37098 ft | 460 kts | 147° |
| 2026-05-04 04:57 | 44.63284 | 13.19433 | 37102 ft | 460 kts | 147° |
| 2026-05-04 04:57 | 44.58092 | 13.24693 | 37100 ft | 460 kts | 147° |
| 2026-05-04 04:58 | 44.52898 | 13.29938 | 37104 ft | 460 kts | 147° |
| 2026-05-04 04:58 | 44.47696 | 13.35175 | 37101 ft | 461 kts | 147° |
| 2026-05-04 04:59 | 44.42490 | 13.40414 | 37105 ft | 461 kts | 147° |
| 2026-05-04 04:59 | 44.37279 | 13.45642 | 37104 ft | 461 kts | 147° |
| 2026-05-04 05:00 | 44.32061 | 13.50857 | 37104 ft | 461 kts | 147° |
| 2026-05-04 05:01 | 44.24228 | 13.58670 | 37101 ft | 462 kts | 147° |
| 2026-05-04 05:01 | 44.18999 | 13.63878 | 37104 ft | 462 kts | 147° |
| 2026-05-04 05:02 | 44.13762 | 13.69072 | 37111 ft | 462 kts | 147° |
| 2026-05-04 05:02 | 44.08523 | 13.74251 | 37112 ft | 462 kts | 147° |
| 2026-05-04 05:03 | 44.04162 | 13.78557 | 37112 ft | 462 kts | 147° |
| 2026-05-04 05:04 | 43.92819 | 13.89751 | 37112 ft | 463 kts | 147° |
| 2026-05-04 05:04 | 43.88420 | 13.94076 | 37112 ft | 463 kts | 147° |
| 2026-05-04 05:06 | 43.67340 | 14.14645 | 37110 ft | 464 kts | 147° |
| 2026-05-04 05:07 | 43.62063 | 14.19786 | 37110 ft | 464 kts | 147° |
| 2026-05-04 05:07 | 43.56779 | 14.24919 | 37112 ft | 465 kts | 147° |
| 2026-05-04 05:09 | 43.32951 | 14.47879 | 37114 ft | 466 kts | 147° |
| 2026-05-04 05:10 | 43.27627 | 14.52971 | 37115 ft | 466 kts | 147° |
| 2026-05-04 05:10 | 43.22297 | 14.58062 | 37113 ft | 467 kts | 147° |
| 2026-05-04 05:11 | 43.16966 | 14.63148 | 37111 ft | 467 kts | 147° |
| 2026-05-04 05:11 | 43.11620 | 14.68236 | 37115 ft | 468 kts | 147° |
| 2026-05-04 05:12 | 43.06273 | 14.73311 | 37118 ft | 468 kts | 147° |
| 2026-05-04 05:12 | 43.00915 | 14.78379 | 37115 ft | 469 kts | 147° |
| 2026-05-04 05:13 | 42.95552 | 14.83455 | 37113 ft | 469 kts | 147° |
| 2026-05-04 05:13 | 42.90182 | 14.88518 | 37113 ft | 469 kts | 147° |
| 2026-05-04 05:14 | 42.84796 | 14.93564 | 37114 ft | 470 kts | 147° |
| 2026-05-04 05:14 | 42.79448 | 14.98592 | 37117 ft | 470 kts | 147° |
| 2026-05-04 05:15 | 42.74057 | 15.03649 | 37105 ft | 472 kts | 147° |
| 2026-05-04 05:15 | 42.71355 | 15.06180 | 36828 ft | 472 kts | 147° |
| 2026-05-04 05:15 | 42.68646 | 15.08711 | 36568 ft | 472 kts | 147° |
| 2026-05-04 05:16 | 42.65938 | 15.11240 | 36306 ft | 473 kts | 147° |
| 2026-05-04 05:16 | 42.63222 | 15.13771 | 36051 ft | 474 kts | 147° |
| 2026-05-04 05:16 | 42.60500 | 15.16307 | 35798 ft | 475 kts | 147° |
| 2026-05-04 05:16 | 42.57775 | 15.18842 | 35544 ft | 476 kts | 147° |
| 2026-05-04 05:17 | 42.55043 | 15.21382 | 35296 ft | 476 kts | 147° |
| 2026-05-04 05:17 | 42.52306 | 15.23919 | 35046 ft | 477 kts | 147° |
| 2026-05-04 05:17 | 42.49559 | 15.26462 | 34805 ft | 478 kts | 147° |
| 2026-05-04 05:17 | 42.46809 | 15.29009 | 34560 ft | 479 kts | 147° |
| 2026-05-04 05:18 | 42.44056 | 15.31563 | 34317 ft | 480 kts | 147° |
| 2026-05-04 05:18 | 42.41299 | 15.34123 | 34076 ft | 481 kts | 147° |
| 2026-05-04 05:18 | 42.38532 | 15.36689 | 33807 ft | 482 kts | 147° |
| 2026-05-04 05:18 | 42.35761 | 15.39248 | 33531 ft | 483 kts | 147° |
| 2026-05-04 05:19 | 42.32976 | 15.41806 | 33264 ft | 484 kts | 147° |
| 2026-05-04 05:19 | 42.30189 | 15.44364 | 32997 ft | 485 kts | 147° |
| 2026-05-04 05:19 | 42.27398 | 15.46928 | 32736 ft | 486 kts | 147° |
| 2026-05-04 05:19 | 42.24597 | 15.49503 | 32476 ft | 487 kts | 146° |
| 2026-05-04 05:20 | 42.21797 | 15.52076 | 32220 ft | 488 kts | 146° |
| 2026-05-04 05:20 | 42.18985 | 15.54655 | 31967 ft | 489 kts | 146° |
| 2026-05-04 05:20 | 42.16169 | 15.57234 | 31721 ft | 490 kts | 146° |
| 2026-05-04 05:20 | 42.13345 | 15.59817 | 31477 ft | 491 kts | 146° |
| 2026-05-04 05:21 | 42.10517 | 15.62404 | 31241 ft | 492 kts | 146° |
| 2026-05-04 05:21 | 42.07681 | 15.64995 | 31007 ft | 493 kts | 146° |
| 2026-05-04 05:21 | 42.04841 | 15.67588 | 30732 ft | 493 kts | 146° |
| 2026-05-04 05:21 | 42.02027 | 15.70157 | 29603 ft | 501 kts | 146° |
| 2026-05-04 05:22 | 41.99121 | 15.72797 | 28495 ft | 505 kts | 146° |
| 2026-05-04 05:22 | 41.96200 | 15.75447 | 27385 ft | 508 kts | 146° |
| 2026-05-04 05:22 | 41.93378 | 15.78312 | 26315 ft | 509 kts | 138° |
| 2026-05-04 05:22 | 41.90883 | 15.81685 | 25218 ft | 509 kts | 130° |
| 2026-05-04 05:23 | 41.88549 | 15.85228 | 24364 ft | 505 kts | 130° |
| 2026-05-04 05:23 | 41.86232 | 15.88728 | 23744 ft | 497 kts | 130° |
| 2026-05-04 05:23 | 41.83943 | 15.92168 | 22954 ft | 492 kts | 130° |
| 2026-05-04 05:23 | 41.81672 | 15.95564 | 22190 ft | 486 kts | 131° |
| 2026-05-04 05:24 | 41.79430 | 15.98900 | 21477 ft | 479 kts | 131° |
| 2026-05-04 05:24 | 41.77205 | 16.02208 | 20674 ft | 475 kts | 130° |
| 2026-05-04 05:24 | 41.75017 | 16.05468 | 19966 ft | 469 kts | 131° |
| 2026-05-04 05:24 | 41.72855 | 16.08690 | 19335 ft | 461 kts | 130° |
| 2026-05-04 05:25 | 41.70720 | 16.11873 | 18649 ft | 457 kts | 130° |
| 2026-05-04 05:25 | 41.68616 | 16.15011 | 17996 ft | 450 kts | 130° |
| 2026-05-04 05:25 | 41.66544 | 16.18097 | 17431 ft | 442 kts | 130° |
| 2026-05-04 05:25 | 41.64507 | 16.21122 | 16879 ft | 433 kts | 130° |
| 2026-05-04 05:26 | 41.62505 | 16.24090 | 16343 ft | 426 kts | 130° |
| 2026-05-04 05:26 | 41.60537 | 16.27003 | 15823 ft | 418 kts | 130° |
| 2026-05-04 05:26 | 41.58601 | 16.29860 | 15327 ft | 412 kts | 130° |
| 2026-05-04 05:26 | 41.56693 | 16.32676 | 14825 ft | 406 kts | 130° |
| 2026-05-04 05:27 | 41.54813 | 16.35449 | 14338 ft | 400 kts | 130° |
| 2026-05-04 05:28 | 41.41612 | 16.51792 | 11148 ft | 366 kts | 146° |
| 2026-05-04 05:29 | 41.39406 | 16.53351 | 11025 ft | 353 kts | 156° |
| 2026-05-04 05:29 | 41.37148 | 16.54491 | 10904 ft | 340 kts | 159° |
| 2026-05-04 05:29 | 41.34973 | 16.55577 | 10781 ft | 328 kts | 158° |
| 2026-05-04 05:29 | 41.32873 | 16.56636 | 10659 ft | 317 kts | 158° |
| 2026-05-04 05:31 | 41.19665 | 16.58436 | 9270 ft | 274 kts | 239° |
| 2026-05-04 05:31 | 41.18880 | 16.56169 | 8925 ft | 270 kts | 252° |
| 2026-05-04 05:32 | 41.18221 | 16.53842 | 8563 ft | 269 kts | 251° |
| 2026-05-04 05:32 | 41.17562 | 16.51524 | 8230 ft | 268 kts | 251° |
| 2026-05-04 05:32 | 41.16904 | 16.49225 | 7882 ft | 266 kts | 251° |
| 2026-05-04 05:33 | 41.15592 | 16.44642 | 6980 ft | 272 kts | 251° |
| 2026-05-04 05:33 | 41.14905 | 16.42239 | 6272 ft | 285 kts | 250° |
| 2026-05-04 05:33 | 41.14199 | 16.39780 | 5939 ft | 282 kts | 250° |
| 2026-05-04 05:33 | 41.13267 | 16.37557 | 5805 ft | 272 kts | 231° |
| 2026-05-04 05:34 | 41.11869 | 16.36013 | 5742 ft | 260 kts | 209° |
| 2026-05-04 05:34 | 41.10198 | 16.35284 | 5674 ft | 249 kts | 186° |
| 2026-05-04 05:34 | 41.08486 | 16.35380 | 5571 ft | 244 kts | 166° |
| 2026-05-04 05:34 | 41.06912 | 16.36222 | 5567 ft | 245 kts | 147° |
| 2026-05-04 05:35 | 41.05629 | 16.37695 | 5518 ft | 245 kts | 127° |
| 2026-05-04 05:35 | 41.04782 | 16.39626 | 5380 ft | 242 kts | 108° |
| 2026-05-04 05:35 | 41.04461 | 16.41796 | 5169 ft | 240 kts | 88° |
| 2026-05-04 05:35 | 41.04701 | 16.43951 | 4888 ft | 236 kts | 68° |
| 2026-05-04 05:36 | 41.05277 | 16.45980 | 4612 ft | 233 kts | 67° |
| 2026-05-04 05:36 | 41.05852 | 16.47975 | 4273 ft | 231 kts | 67° |
| 2026-05-04 05:36 | 41.06417 | 16.49946 | 3970 ft | 228 kts | 67° |
| 2026-05-04 05:36 | 41.06976 | 16.51901 | 3676 ft | 225 kts | 67° |
| 2026-05-04 05:37 | 41.07531 | 16.53842 | 3376 ft | 224 kts | 67° |
| 2026-05-04 05:37 | 41.08083 | 16.55776 | 3072 ft | 224 kts | 67° |
| 2026-05-04 05:37 | 41.08620 | 16.57659 | 2787 ft | 210 kts | 67° |
| 2026-05-04 05:38 | 41.09570 | 16.60993 | 2263 ft | 179 kts | 66° |
| 2026-05-04 05:38 | 41.09997 | 16.62493 | 2037 ft | 170 kts | 67° |
| 2026-05-04 05:38 | 41.10407 | 16.63931 | 1851 ft | 160 kts | 66° |
| 2026-05-04 05:38 | 41.10792 | 16.65286 | 1626 ft | 154 kts | 67° |
| 2026-05-04 05:39 | 41.11167 | 16.66602 | 1416 ft | 152 kts | 67° |
| 2026-05-04 05:39 | 41.11911 | 16.69216 | 1010 ft | 153 kts | 69° |
| 2026-05-04 05:39 | 41.12283 | 16.70543 | 805 ft | 153 kts | 70° |
| 2026-05-04 05:40 | 41.13032 | 16.73175 | 323 ft | 151 kts | 70° |
| 2026-05-04 05:40 | 41.13395 | 16.74459 | 159 ft | 144 kts | 70° |
| 2026-05-04 05:40 | 41.13665 | 16.75428 | 140 ft | 70 kts | 70° |
| 2026-05-04 05:41 | 41.13666 | 16.75765 | 141 ft | 22 kts | 112° |
| 2026-05-04 05:41 | 41.13640 | 16.75976 | 136 ft | 17 kts | 88° |
| 2026-05-04 05:41 | 41.13556 | 16.76126 | 136 ft | 22 kts | 118° |
| 2026-05-04 05:41 | 41.13590 | 16.76298 | 136 ft | 18 kts | 91° |
| 2026-05-04 05:42 | 41.13549 | 16.76330 | 136 ft | 9 kts | 185° |
| 2026-05-04 05:42 | 41.13527 | 16.76339 | 136 ft | 0 kts | 161° |